Terminal Aerodrome Forecast
Issued by NWS

Current Version | Previous Version | Text Only | Print | Product List | Glossary On
Versions: 1 2 3 4 5 6 7 8 9 10 11 12 13 14 15 16 17 18 19 20 21 22
000 FTUS41 KBOX 201720 TAFACK TAF KACK 201720Z 2018/2118 25023G37KT P6SM FEW150 FM202300 26014G20KT P6SM FEW140 FM210400 27012KT P6SM SKC FM211700 30006KT P6SM FEW150=

USA.gov is the U.S. government's official web portal to all federal, state and local government web resources and services.